Naval Hospital, Tennessee
Current Conditions -  °F | °C
As of 10:50 PM on Thursday 30 Oct 2014 (Local Time) from KNQA Reporting Station
Broken Clouds Broken Clouds  
Wind Chill: 52°   Ceiling: 11000
Heat Index: 52°   Visibility: 10mi
Dew Point: 48°   Wind: 3mph
Humidity: 88%   Direction: 90°E
Pressure: 30"   Gusts: NA
Location:  35.3353°N, 89.8776°W
Report Text: KNQA 310350Z 09003KT 10SM SCT070 BKN110 11/09 A3000
Loading
Personal Weather Stations






























Interactive Weather Map
Tropical Storm Tracking
New forecast layout! Learn more

10-Day Weather Forecast

Advertisements
Track Severe Weather on mobile